sensor_id;sensor_type;location;lat;lon;timestamp;temperature;humidity
21163;DHT22;10739;52.198;20.908;2022-12-10T00:01:30;0.90;99.90
21163;DHT22;10739;52.198;20.908;2022-12-10T00:03:57;0.90;99.90
21163;DHT22;10739;52.198;20.908;2022-12-10T00:06:29;0.80;99.90
21163;DHT22;10739;52.198;20.908;2022-12-10T00:08:59;0.80;99.90
21163;DHT22;10739;52.198;20.908;2022-12-10T00:11:27;0.80;99.90
21163;DHT22;10739;52.198;20.908;2022-12-10T00:13:54;0.80;99.90
21163;DHT22;10739;52.198;20.908;2022-12-10T00:16:22;0.80;99.90
21163;DHT22;10739;52.198;20.908;2022-12-10T00:18:50;0.80;99.90
21163;DHT22;10739;52.198;20.908;2022-12-10T00:21:20;1.60;99.90
21163;DHT22;10739;52.198;20.908;2022-12-10T00:23:49;0.80;99.90
21163;DHT22;10739;52.198;20.908;2022-12-10T00:26:23;0.80;99.90
21163;DHT22;10739;52.198;20.908;2022-12-10T00:28:52;0.80;99.90
21163;DHT22;10739;52.198;20.908;2022-12-10T00:31:27;0.80;99.90
21163;DHT22;10739;52.198;20.908;2022-12-10T00:33:57;0.70;99.90
21163;DHT22;10739;52.198;20.908;2022-12-10T00:36:33;0.70;99.90
21163;DHT22;10739;52.198;20.908;2022-12-10T00:39:03;0.70;99.90
21163;DHT22;10739;52.198;20.908;2022-12-10T00:41:30;0.70;99.90
21163;DHT22;10739;52.198;20.908;2022-12-10T00:43:56;0.70;99.90
21163;DHT22;10739;52.198;20.908;2022-12-10T00:46:23;0.70;99.90
21163;DHT22;10739;52.198;20.908;2022-12-10T00:48:49;0.70;99.90
21163;DHT22;10739;52.198;20.908;2022-12-10T00:51:17;0.70;99.90
21163;DHT22;10739;52.198;20.908;2022-12-10T00:53:46;0.70;99.90
21163;DHT22;10739;52.198;20.908;2022-12-10T00:56:16;0.70;99.90
21163;DHT22;10739;52.198;20.908;2022-12-10T00:58:43;0.70;99.90
21163;DHT22;10739;52.198;20.908;2022-12-10T01:01:24;0.70;99.90
21163;DHT22;10739;52.198;20.908;2022-12-10T01:03:53;0.70;99.90
21163;DHT22;10739;52.198;20.908;2022-12-10T01:06:27;0.70;99.90
21163;DHT22;10739;52.198;20.908;2022-12-10T01:08:58;0.80;99.90
21163;DHT22;10739;52.198;20.908;2022-12-10T01:11:29;0.80;99.90
21163;DHT22;10739;52.198;20.908;2022-12-10T01:13:58;0.70;99.90
21163;DHT22;10739;52.198;20.908;2022-12-10T01:16:25;0.80;99.90
21163;DHT22;10739;52.198;20.908;2022-12-10T01:18:56;0.70;99.90
21163;DHT22;10739;52.198;20.908;2022-12-10T01:21:25;0.70;99.90
21163;DHT22;10739;52.198;20.908;2022-12-10T01:23:53;0.80;99.90
21163;DHT22;10739;52.198;20.908;2022-12-10T01:26:26;0.70;99.90
21163;DHT22;10739;52.198;20.908;2022-12-10T01:28:55;0.70;99.90
21163;DHT22;10739;52.198;20.908;2022-12-10T01:31:27;0.70;99.90
21163;DHT22;10739;52.198;20.908;2022-12-10T01:33:56;0.70;99.90
21163;DHT22;10739;52.198;20.908;2022-12-10T01:36:29;0.70;99.90
21163;DHT22;10739;52.198;20.908;2022-12-10T01:38:57;0.70;99.90
21163;DHT22;10739;52.198;20.908;2022-12-10T01:41:26;0.70;99.90
21163;DHT22;10739;52.198;20.908;2022-12-10T01:49:14;0.60;99.90
21163;DHT22;10739;52.198;20.908;2022-12-10T01:51:46;0.60;99.90
21163;DHT22;10739;52.198;20.908;2022-12-10T01:54:18;0.60;99.90
21163;DHT22;10739;52.198;20.908;2022-12-10T01:57:06;0.60;99.90
21163;DHT22;10739;52.198;20.908;2022-12-10T01:59:36;0.50;99.90
21163;DHT22;10739;52.198;20.908;2022-12-10T02:05:16;0.50;99.90
21163;DHT22;10739;52.198;20.908;2022-12-10T02:08:26;0.50;99.90
21163;DHT22;10739;52.198;20.908;2022-12-10T02:11:17;0.60;99.90
21163;DHT22;10739;52.198;20.908;2022-12-10T02:14:01;0.60;99.90
21163;DHT22;10739;52.198;20.908;2022-12-10T02:16:33;0.60;99.90
21163;DHT22;10739;52.198;20.908;2022-12-10T02:21:42;0.70;99.90
21163;DHT22;10739;52.198;20.908;2022-12-10T02:24:15;0.60;99.90
21163;DHT22;10739;52.198;20.908;2022-12-10T02:27:00;0.60;99.90
21163;DHT22;10739;52.198;20.908;2022-12-10T02:29:38;0.60;99.90
21163;DHT22;10739;52.198;20.908;2022-12-10T02:32:14;0.60;99.90
21163;DHT22;10739;52.198;20.908;2022-12-10T02:34:50;0.60;99.90
21163;DHT22;10739;52.198;20.908;2022-12-10T02:37:27;0.60;99.90
21163;DHT22;10739;52.198;20.908;2022-12-10T02:40:01;0.60;99.90
21163;DHT22;10739;52.198;20.908;2022-12-10T02:42:31;0.60;99.90
21163;DHT22;10739;52.198;20.908;2022-12-10T02:45:01;0.60;99.90
21163;DHT22;10739;52.198;20.908;2022-12-10T02:47:29;0.50;99.90
21163;DHT22;10739;52.198;20.908;2022-12-10T02:49:56;0.50;99.90
21163;DHT22;10739;52.198;20.908;2022-12-10T02:52:24;0.60;99.90
21163;DHT22;10739;52.198;20.908;2022-12-10T02:54:51;0.60;99.90
21163;DHT22;10739;52.198;20.908;2022-12-10T03:00:22;0.50;99.90
21163;DHT22;10739;52.198;20.908;2022-12-10T03:06:30;0.50;99.90
21163;DHT22;10739;52.198;20.908;2022-12-10T03:08:40;0.50;99.90
21163;DHT22;10739;52.198;20.908;2022-12-10T03:11:15;0.40;99.90
21163;DHT22;10739;52.198;20.908;2022-12-10T03:16:44;0.40;99.90
21163;DHT22;10739;52.198;20.908;2022-12-10T03:19:17;0.40;99.90
21163;DHT22;10739;52.198;20.908;2022-12-10T03:21:47;0.40;99.90
21163;DHT22;10739;52.198;20.908;2022-12-10T03:24:16;0.50;99.90
21163;DHT22;10739;52.198;20.908;2022-12-10T03:26:46;0.50;99.90
21163;DHT22;10739;52.198;20.908;2022-12-10T03:29:19;0.40;99.90
21163;DHT22;10739;52.198;20.908;2022-12-10T03:31:51;0.50;99.90
21163;DHT22;10739;52.198;20.908;2022-12-10T03:34:19;0.40;99.90
21163;DHT22;10739;52.198;20.908;2022-12-10T03:36:46;0.40;99.90
21163;DHT22;10739;52.198;20.908;2022-12-10T03:39:14;0.40;99.90
21163;DHT22;10739;52.198;20.908;2022-12-10T03:41:41;0.40;99.90
21163;DHT22;10739;52.198;20.908;2022-12-10T03:44:07;0.40;99.90
21163;DHT22;10739;52.198;20.908;2022-12-10T03:46:33;0.30;99.90
21163;DHT22;10739;52.198;20.908;2022-12-10T03:49:01;0.40;99.90
21163;DHT22;10739;52.198;20.908;2022-12-10T03:51:27;0.40;99.90
21163;DHT22;10739;52.198;20.908;2022-12-10T03:53:54;0.40;99.90
21163;DHT22;10739;52.198;20.908;2022-12-10T03:56:21;0.40;99.90
21163;DHT22;10739;52.198;20.908;2022-12-10T03:58:48;0.40;99.90
21163;DHT22;10739;52.198;20.908;2022-12-10T04:01:15;0.40;99.90
21163;DHT22;10739;52.198;20.908;2022-12-10T04:03:42;0.40;99.90
21163;DHT22;10739;52.198;20.908;2022-12-10T04:06:16;0.40;99.90
21163;DHT22;10739;52.198;20.908;2022-12-10T04:08:44;0.30;99.90
21163;DHT22;10739;52.198;20.908;2022-12-10T04:11:12;0.30;99.90
21163;DHT22;10739;52.198;20.908;2022-12-10T04:13:39;0.30;99.90
21163;DHT22;10739;52.198;20.908;2022-12-10T04:16:25;0.40;99.90
21163;DHT22;10739;52.198;20.908;2022-12-10T04:18:56;0.40;99.90
21163;DHT22;10739;52.198;20.908;2022-12-10T04:21:35;0.40;99.90
21163;DHT22;10739;52.198;20.908;2022-12-10T04:24:26;0.40;99.90
21163;DHT22;10739;52.198;20.908;2022-12-10T04:27:19;0.40;99.90
21163;DHT22;10739;52.198;20.908;2022-12-10T04:29:48;0.30;99.90
21163;DHT22;10739;52.198;20.908;2022-12-10T04:32:15;0.40;99.90
21163;DHT22;10739;52.198;20.908;2022-12-10T04:34:42;0.40;99.90
21163;DHT22;10739;52.198;20.908;2022-12-10T04:37:08;0.40;99.90
21163;DHT22;10739;52.198;20.908;2022-12-10T04:39:37;0.40;99.90
21163;DHT22;10739;52.198;20.908;2022-12-10T04:42:05;0.40;99.90
21163;DHT22;10739;52.198;20.908;2022-12-10T04:44:31;0.50;99.90
21163;DHT22;10739;52.198;20.908;2022-12-10T04:46:58;0.50;99.90
21163;DHT22;10739;52.198;20.908;2022-12-10T04:49:25;0.50;99.90
21163;DHT22;10739;52.198;20.908;2022-12-10T04:51:52;0.50;99.90
21163;DHT22;10739;52.198;20.908;2022-12-10T04:54:19;0.40;99.90
21163;DHT22;10739;52.198;20.908;2022-12-10T04:56:45;0.50;99.90
21163;DHT22;10739;52.198;20.908;2022-12-10T04:59:12;0.50;99.90
21163;DHT22;10739;52.198;20.908;2022-12-10T05:01:39;0.50;99.90
21163;DHT22;10739;52.198;20.908;2022-12-10T05:04:07;0.50;99.90
21163;DHT22;10739;52.198;20.908;2022-12-10T05:06:35;0.50;99.90
21163;DHT22;10739;52.198;20.908;2022-12-10T05:09:02;0.50;99.90
21163;DHT22;10739;52.198;20.908;2022-12-10T05:11:31;0.60;99.90
21163;DHT22;10739;52.198;20.908;2022-12-10T05:13:58;0.60;99.90
21163;DHT22;10739;52.198;20.908;2022-12-10T05:16:27;0.50;99.90
21163;DHT22;10739;52.198;20.908;2022-12-10T05:18:56;0.50;99.90
21163;DHT22;10739;52.198;20.908;2022-12-10T05:21:24;0.50;99.90
21163;DHT22;10739;52.198;20.908;2022-12-10T05:24:11;0.40;99.90
21163;DHT22;10739;52.198;20.908;2022-12-10T05:26:38;0.50;99.90
21163;DHT22;10739;52.198;20.908;2022-12-10T05:29:04;0.50;99.90
21163;DHT22;10739;52.198;20.908;2022-12-10T05:31:30;0.60;99.90
21163;DHT22;10739;52.198;20.908;2022-12-10T05:33:57;0.60;99.90
21163;DHT22;10739;52.198;20.908;2022-12-10T05:36:30;0.50;99.90
21163;DHT22;10739;52.198;20.908;2022-12-10T05:38:57;0.50;99.90
21163;DHT22;10739;52.198;20.908;2022-12-10T05:41:26;0.50;99.90
21163;DHT22;10739;52.198;20.908;2022-12-10T05:43:55;0.50;99.90
21163;DHT22;10739;52.198;20.908;2022-12-10T05:46:25;0.60;99.90
21163;DHT22;10739;52.198;20.908;2022-12-10T05:48:53;0.50;99.90
21163;DHT22;10739;52.198;20.908;2022-12-10T05:51:22;0.60;99.90
21163;DHT22;10739;52.198;20.908;2022-12-10T05:53:51;0.40;99.90
21163;DHT22;10739;52.198;20.908;2022-12-10T05:56:20;0.40;99.90
21163;DHT22;10739;52.198;20.908;2022-12-10T05:58:49;0.40;99.90
21163;DHT22;10739;52.198;20.908;2022-12-10T06:01:19;0.40;99.90
21163;DHT22;10739;52.198;20.908;2022-12-10T06:03:47;0.40;99.90
21163;DHT22;10739;52.198;20.908;2022-12-10T06:06:23;0.40;99.90
21163;DHT22;10739;52.198;20.908;2022-12-10T06:08:51;0.40;99.90
21163;DHT22;10739;52.198;20.908;2022-12-10T06:11:17;0.40;99.90
21163;DHT22;10739;52.198;20.908;2022-12-10T06:13:44;0.50;99.90
21163;DHT22;10739;52.198;20.908;2022-12-10T06:16:12;0.50;99.90
21163;DHT22;10739;52.198;20.908;2022-12-10T06:18:39;0.50;99.90
21163;DHT22;10739;52.198;20.908;2022-12-10T06:21:08;0.50;99.90
21163;DHT22;10739;52.198;20.908;2022-12-10T06:23:37;0.50;99.90
21163;DHT22;10739;52.198;20.908;2022-12-10T06:26:13;0.40;99.90
21163;DHT22;10739;52.198;20.908;2022-12-10T06:28:43;0.40;99.90
21163;DHT22;10739;52.198;20.908;2022-12-10T06:31:12;0.40;99.90
21163;DHT22;10739;52.198;20.908;2022-12-10T06:33:38;0.30;99.90
21163;DHT22;10739;52.198;20.908;2022-12-10T06:36:06;0.30;99.90
21163;DHT22;10739;52.198;20.908;2022-12-10T06:38:34;0.30;99.90
21163;DHT22;10739;52.198;20.908;2022-12-10T06:41:04;0.30;99.90
21163;DHT22;10739;52.198;20.908;2022-12-10T06:43:31;0.20;99.90
21163;DHT22;10739;52.198;20.908;2022-12-10T06:45:57;0.20;99.90
21163;DHT22;10739;52.198;20.908;2022-12-10T06:48:24;0.30;99.90
21163;DHT22;10739;52.198;20.908;2022-12-10T06:50:50;0.20;99.90
21163;DHT22;10739;52.198;20.908;2022-12-10T06:53:16;0.20;99.90
21163;DHT22;10739;52.198;20.908;2022-12-10T06:55:42;0.30;99.90
21163;DHT22;10739;52.198;20.908;2022-12-10T06:58:08;0.20;99.90
21163;DHT22;10739;52.198;20.908;2022-12-10T07:00:34;0.20;99.90
21163;DHT22;10739;52.198;20.908;2022-12-10T07:03:00;0.30;99.90
21163;DHT22;10739;52.198;20.908;2022-12-10T07:05:26;0.30;99.90
21163;DHT22;10739;52.198;20.908;2022-12-10T07:07:52;0.20;99.90
21163;DHT22;10739;52.198;20.908;2022-12-10T07:10:19;0.20;99.90
21163;DHT22;10739;52.198;20.908;2022-12-10T07:12:45;0.20;99.90
21163;DHT22;10739;52.198;20.908;2022-12-10T07:15:11;0.20;99.90
21163;DHT22;10739;52.198;20.908;2022-12-10T07:17:37;0.20;99.90
21163;DHT22;10739;52.198;20.908;2022-12-10T07:20:04;0.20;99.90
21163;DHT22;10739;52.198;20.908;2022-12-10T07:22:31;0.20;99.90
21163;DHT22;10739;52.198;20.908;2022-12-10T07:24:57;0.30;99.90
21163;DHT22;10739;52.198;20.908;2022-12-10T07:27:22;0.30;99.90
21163;DHT22;10739;52.198;20.908;2022-12-10T07:29:49;0.30;99.90
21163;DHT22;10739;52.198;20.908;2022-12-10T07:32:15;0.30;99.90
21163;DHT22;10739;52.198;20.908;2022-12-10T07:34:42;0.30;99.90
21163;DHT22;10739;52.198;20.908;2022-12-10T07:37:08;0.40;99.90
21163;DHT22;10739;52.198;20.908;2022-12-10T07:39:34;0.30;99.90
21163;DHT22;10739;52.198;20.908;2022-12-10T07:42:00;0.40;99.90
21163;DHT22;10739;52.198;20.908;2022-12-10T07:44:26;0.40;99.90
21163;DHT22;10739;52.198;20.908;2022-12-10T07:46:53;-0.80;99.90
21163;DHT22;10739;52.198;20.908;2022-12-10T07:49:20;0.40;99.90
21163;DHT22;10739;52.198;20.908;2022-12-10T07:51:49;0.40;99.90
21163;DHT22;10739;52.198;20.908;2022-12-10T07:54:16;0.50;99.90
21163;DHT22;10739;52.198;20.908;2022-12-10T07:56:44;0.50;99.90
21163;DHT22;10739;52.198;20.908;2022-12-10T07:59:10;0.40;99.90
21163;DHT22;10739;52.198;20.908;2022-12-10T08:01:37;0.50;99.90
21163;DHT22;10739;52.198;20.908;2022-12-10T08:04:04;0.60;99.90
21163;DHT22;10739;52.198;20.908;2022-12-10T08:06:30;0.60;99.90
21163;DHT22;10739;52.198;20.908;2022-12-10T08:08:58;0.60;99.90
21163;DHT22;10739;52.198;20.908;2022-12-10T08:11:25;0.60;99.90
21163;DHT22;10739;52.198;20.908;2022-12-10T08:13:53;0.50;99.90
21163;DHT22;10739;52.198;20.908;2022-12-10T08:16:21;0.50;99.90
21163;DHT22;10739;52.198;20.908;2022-12-10T08:18:48;0.50;99.90
21163;DHT22;10739;52.198;20.908;2022-12-10T08:21:17;0.50;99.90
21163;DHT22;10739;52.198;20.908;2022-12-10T08:23:45;0.50;99.90
21163;DHT22;10739;52.198;20.908;2022-12-10T08:26:15;0.50;99.90
21163;DHT22;10739;52.198;20.908;2022-12-10T08:28:43;0.50;99.90
21163;DHT22;10739;52.198;20.908;2022-12-10T08:31:11;0.50;99.90
21163;DHT22;10739;52.198;20.908;2022-12-10T08:33:39;0.40;99.90
21163;DHT22;10739;52.198;20.908;2022-12-10T08:36:07;0.50;99.90
21163;DHT22;10739;52.198;20.908;2022-12-10T08:38:35;0.50;99.90
21163;DHT22;10739;52.198;20.908;2022-12-10T08:41:10;0.50;99.90
21163;DHT22;10739;52.198;20.908;2022-12-10T08:43:38;0.50;99.90
21163;DHT22;10739;52.198;20.908;2022-12-10T08:46:06;0.50;99.90
21163;DHT22;10739;52.198;20.908;2022-12-10T08:48:34;0.50;99.90
21163;DHT22;10739;52.198;20.908;2022-12-10T08:51:02;0.50;99.90
21163;DHT22;10739;52.198;20.908;2022-12-10T08:53:29;0.60;99.90
21163;DHT22;10739;52.198;20.908;2022-12-10T08:55:55;0.60;99.90
21163;DHT22;10739;52.198;20.908;2022-12-10T08:58:21;0.60;99.90
21163;DHT22;10739;52.198;20.908;2022-12-10T09:00:49;0.60;99.90
21163;DHT22;10739;52.198;20.908;2022-12-10T09:03:15;0.60;99.90
21163;DHT22;10739;52.198;20.908;2022-12-10T09:05:42;0.70;99.90
21163;DHT22;10739;52.198;20.908;2022-12-10T09:08:08;0.60;99.90
21163;DHT22;10739;52.198;20.908;2022-12-10T09:10:39;0.70;99.90
21163;DHT22;10739;52.198;20.908;2022-12-10T09:13:06;0.70;99.90
21163;DHT22;10739;52.198;20.908;2022-12-10T09:15:33;0.70;99.90
21163;DHT22;10739;52.198;20.908;2022-12-10T09:17:59;0.70;99.90
21163;DHT22;10739;52.198;20.908;2022-12-10T09:20:26;0.70;99.90
21163;DHT22;10739;52.198;20.908;2022-12-10T09:22:52;0.70;99.90
21163;DHT22;10739;52.198;20.908;2022-12-10T09:25:18;0.80;99.90
21163;DHT22;10739;52.198;20.908;2022-12-10T09:27:47;0.80;99.90
21163;DHT22;10739;52.198;20.908;2022-12-10T09:30:14;0.80;99.90
21163;DHT22;10739;52.198;20.908;2022-12-10T09:32:40;0.80;99.90
21163;DHT22;10739;52.198;20.908;2022-12-10T09:35:07;0.90;99.90
21163;DHT22;10739;52.198;20.908;2022-12-10T09:37:34;0.80;99.90
21163;DHT22;10739;52.198;20.908;2022-12-10T09:40:00;0.70;99.90
21163;DHT22;10739;52.198;20.908;2022-12-10T09:42:52;0.70;99.90
21163;DHT22;10739;52.198;20.908;2022-12-10T09:48:21;0.80;99.90
21163;DHT22;10739;52.198;20.908;2022-12-10T09:50:55;0.80;99.90
21163;DHT22;10739;52.198;20.908;2022-12-10T09:53:28;0.80;99.90
21163;DHT22;10739;52.198;20.908;2022-12-10T09:55:55;0.80;99.90
21163;DHT22;10739;52.198;20.908;2022-12-10T09:58:25;0.90;99.90
21163;DHT22;10739;52.198;20.908;2022-12-10T10:01:01;0.80;99.90
21163;DHT22;10739;52.198;20.908;2022-12-10T10:03:41;0.80;99.90
21163;DHT22;10739;52.198;20.908;2022-12-10T10:06:13;0.90;99.90
21163;DHT22;10739;52.198;20.908;2022-12-10T10:08:46;0.90;99.90
21163;DHT22;10739;52.198;20.908;2022-12-10T10:11:26;0.90;99.90
21163;DHT22;10739;52.198;20.908;2022-12-10T10:16:35;1.00;99.90
21163;DHT22;10739;52.198;20.908;2022-12-10T10:19:13;1.00;99.90
21163;DHT22;10739;52.198;20.908;2022-12-10T10:21:43;1.00;99.90
21163;DHT22;10739;52.198;20.908;2022-12-10T10:24:15;1.00;99.90
21163;DHT22;10739;52.198;20.908;2022-12-10T10:26:44;1.00;99.90
21163;DHT22;10739;52.198;20.908;2022-12-10T10:29:13;1.10;99.90
21163;DHT22;10739;52.198;20.908;2022-12-10T10:31:43;1.10;99.90
21163;DHT22;10739;52.198;20.908;2022-12-10T10:34:19;1.10;99.90
21163;DHT22;10739;52.198;20.908;2022-12-10T10:36:58;1.10;99.90
21163;DHT22;10739;52.198;20.908;2022-12-10T10:39:27;1.20;99.90
21163;DHT22;10739;52.198;20.908;2022-12-10T10:41:57;1.20;99.90
21163;DHT22;10739;52.198;20.908;2022-12-10T10:44:34;1.20;99.90
21163;DHT22;10739;52.198;20.908;2022-12-10T10:47:26;1.30;99.90
21163;DHT22;10739;52.198;20.908;2022-12-10T10:49:55;1.30;99.90
21163;DHT22;10739;52.198;20.908;2022-12-10T10:52:22;1.30;99.90
21163;DHT22;10739;52.198;20.908;2022-12-10T10:54:49;1.40;99.90
21163;DHT22;10739;52.198;20.908;2022-12-10T10:57:36;1.40;99.90
21163;DHT22;10739;52.198;20.908;2022-12-10T11:00:21;1.40;99.90
21163;DHT22;10739;52.198;20.908;2022-12-10T11:02:51;1.40;99.90
21163;DHT22;10739;52.198;20.908;2022-12-10T11:05:29;1.50;99.90
21163;DHT22;10739;52.198;20.908;2022-12-10T11:08:04;1.50;99.90
21163;DHT22;10739;52.198;20.908;2022-12-10T11:10:47;1.40;99.90
21163;DHT22;10739;52.198;20.908;2022-12-10T11:13:32;1.40;99.90
21163;DHT22;10739;52.198;20.908;2022-12-10T11:16:20;1.40;99.90
21163;DHT22;10739;52.198;20.908;2022-12-10T11:18:59;1.30;99.90
21163;DHT22;10739;52.198;20.908;2022-12-10T11:21:29;1.30;99.90
21163;DHT22;10739;52.198;20.908;2022-12-10T11:23:58;1.40;99.90
21163;DHT22;10739;52.198;20.908;2022-12-10T11:38:45;1.20;99.90
21163;DHT22;10739;52.198;20.908;2022-12-10T11:44:27;1.20;99.90
21163;DHT22;10739;52.198;20.908;2022-12-10T11:48:08;1.30;99.90
21163;DHT22;10739;52.198;20.908;2022-12-10T11:50:46;1.30;99.90
21163;DHT22;10739;52.198;20.908;2022-12-10T11:56:26;1.10;99.90
21163;DHT22;10739;52.198;20.908;2022-12-10T12:13:47;1.20;99.90
21163;DHT22;10739;52.198;20.908;2022-12-10T12:17:13;1.20;99.90
21163;DHT22;10739;52.198;20.908;2022-12-10T12:19:22;1.10;99.90
21163;DHT22;10739;52.198;20.908;2022-12-10T12:22:14;1.10;99.90
21163;DHT22;10739;52.198;20.908;2022-12-10T12:24:44;1.10;99.90
21163;DHT22;10739;52.198;20.908;2022-12-10T12:27:45;1.10;99.90
21163;DHT22;10739;52.198;20.908;2022-12-10T12:30:20;1.00;99.90
21163;DHT22;10739;52.198;20.908;2022-12-10T12:33:10;1.10;99.90
21163;DHT22;10739;52.198;20.908;2022-12-10T12:35:50;1.10;99.90
21163;DHT22;10739;52.198;20.908;2022-12-10T12:41:16;1.00;99.90
21163;DHT22;10739;52.198;20.908;2022-12-10T12:43:57;1.10;99.90
21163;DHT22;10739;52.198;20.908;2022-12-10T12:46:40;1.10;99.90
21163;DHT22;10739;52.198;20.908;2022-12-10T12:49:27;1.10;99.90
21163;DHT22;10739;52.198;20.908;2022-12-10T12:54:32;1.10;99.90
21163;DHT22;10739;52.198;20.908;2022-12-10T12:57:07;1.10;99.90
21163;DHT22;10739;52.198;20.908;2022-12-10T13:00:19;1.10;99.90
21163;DHT22;10739;52.198;20.908;2022-12-10T13:05:41;1.10;99.90
21163;DHT22;10739;52.198;20.908;2022-12-10T13:13:39;1.10;99.90
21163;DHT22;10739;52.198;20.908;2022-12-10T13:19:33;1.00;99.90
21163;DHT22;10739;52.198;20.908;2022-12-10T13:22:39;1.00;99.90
21163;DHT22;10739;52.198;20.908;2022-12-10T13:25:15;1.00;99.90
21163;DHT22;10739;52.198;20.908;2022-12-10T13:34:19;1.10;99.90
21163;DHT22;10739;52.198;20.908;2022-12-10T13:39:32;1.00;99.90
21163;DHT22;10739;52.198;20.908;2022-12-10T13:45:26;0.90;99.90
21163;DHT22;10739;52.198;20.908;2022-12-10T13:48:19;1.00;99.90
21163;DHT22;10739;52.198;20.908;2022-12-10T13:56:39;1.00;99.90
21163;DHT22;10739;52.198;20.908;2022-12-10T13:59:29;1.00;99.90
21163;DHT22;10739;52.198;20.908;2022-12-10T14:05:50;1.10;99.90
21163;DHT22;10739;52.198;20.908;2022-12-10T14:08:34;1.00;99.90
21163;DHT22;10739;52.198;20.908;2022-12-10T14:11:06;1.00;99.90
21163;DHT22;10739;52.198;20.908;2022-12-10T14:13:46;1.00;99.90
21163;DHT22;10739;52.198;20.908;2022-12-10T14:16:20;1.00;99.90
21163;DHT22;10739;52.198;20.908;2022-12-10T14:18:59;0.90;99.90
21163;DHT22;10739;52.198;20.908;2022-12-10T14:21:36;0.80;99.90
21163;DHT22;10739;52.198;20.908;2022-12-10T14:24:26;0.90;99.90
21163;DHT22;10739;52.198;20.908;2022-12-10T14:27:23;0.80;99.90
21163;DHT22;10739;52.198;20.908;2022-12-10T14:30:20;0.80;99.90
21163;DHT22;10739;52.198;20.908;2022-12-10T14:32:50;0.80;99.90
21163;DHT22;10739;52.198;20.908;2022-12-10T14:35:24;0.80;99.90
21163;DHT22;10739;52.198;20.908;2022-12-10T14:37:55;0.80;99.90
21163;DHT22;10739;52.198;20.908;2022-12-10T14:40:25;0.80;99.90
21163;DHT22;10739;52.198;20.908;2022-12-10T14:43:07;0.80;99.90
21163;DHT22;10739;52.198;20.908;2022-12-10T14:45:51;0.80;99.90
21163;DHT22;10739;52.198;20.908;2022-12-10T14:48:19;0.70;99.90
21163;DHT22;10739;52.198;20.908;2022-12-10T14:50:46;0.70;99.90
21163;DHT22;10739;52.198;20.908;2022-12-10T14:53:18;0.80;99.90
21163;DHT22;10739;52.198;20.908;2022-12-10T14:55:50;0.70;99.90
21163;DHT22;10739;52.198;20.908;2022-12-10T15:01:02;0.70;99.90
21163;DHT22;10739;52.198;20.908;2022-12-10T15:03:34;0.70;99.90
21163;DHT22;10739;52.198;20.908;2022-12-10T15:06:07;0.70;99.90
21163;DHT22;10739;52.198;20.908;2022-12-10T15:08:35;0.80;99.90
21163;DHT22;10739;52.198;20.908;2022-12-10T15:11:02;0.80;99.90
21163;DHT22;10739;52.198;20.908;2022-12-10T15:13:40;0.70;99.90
21163;DHT22;10739;52.198;20.908;2022-12-10T15:16:27;0.80;99.90
21163;DHT22;10739;52.198;20.908;2022-12-10T15:21:59;0.80;99.90
21163;DHT22;10739;52.198;20.908;2022-12-10T15:24:47;0.70;99.90
21163;DHT22;10739;52.198;20.908;2022-12-10T15:27:22;0.60;99.90
21163;DHT22;10739;52.198;20.908;2022-12-10T15:29:50;0.40;99.90
21163;DHT22;10739;52.198;20.908;2022-12-10T15:32:25;0.40;99.90
21163;DHT22;10739;52.198;20.908;2022-12-10T15:35:01;0.40;99.90
21163;DHT22;10739;52.198;20.908;2022-12-10T15:37:34;0.40;99.90
21163;DHT22;10739;52.198;20.908;2022-12-10T15:40:06;0.50;99.90
21163;DHT22;10739;52.198;20.908;2022-12-10T15:42:47;0.50;99.90
21163;DHT22;10739;52.198;20.908;2022-12-10T15:45:24;0.50;99.90
21163;DHT22;10739;52.198;20.908;2022-12-10T15:48:11;0.50;99.90
21163;DHT22;10739;52.198;20.908;2022-12-10T15:50:41;0.50;99.90
21163;DHT22;10739;52.198;20.908;2022-12-10T15:53:12;0.50;99.90
21163;DHT22;10739;52.198;20.908;2022-12-10T15:55:40;0.60;99.90
21163;DHT22;10739;52.198;20.908;2022-12-10T15:58:11;0.50;99.90
21163;DHT22;10739;52.198;20.908;2022-12-10T16:00:40;0.50;99.90
21163;DHT22;10739;52.198;20.908;2022-12-10T16:03:12;0.50;99.90
21163;DHT22;10739;52.198;20.908;2022-12-10T16:05:41;0.50;99.90
21163;DHT22;10739;52.198;20.908;2022-12-10T16:08:20;0.50;99.90
21163;DHT22;10739;52.198;20.908;2022-12-10T16:10:50;0.40;99.90
21163;DHT22;10739;52.198;20.908;2022-12-10T16:13:21;0.50;99.90
21163;DHT22;10739;52.198;20.908;2022-12-10T16:15:59;0.50;99.90
21163;DHT22;10739;52.198;20.908;2022-12-10T16:18:28;0.40;99.90
21163;DHT22;10739;52.198;20.908;2022-12-10T16:20:54;0.40;99.90
21163;DHT22;10739;52.198;20.908;2022-12-10T16:23:21;0.40;99.90
21163;DHT22;10739;52.198;20.908;2022-12-10T16:25:47;0.40;99.90
21163;DHT22;10739;52.198;20.908;2022-12-10T16:28:16;0.40;99.90
21163;DHT22;10739;52.198;20.908;2022-12-10T16:30:55;0.40;99.90
21163;DHT22;10739;52.198;20.908;2022-12-10T16:33:25;0.40;99.90
21163;DHT22;10739;52.198;20.908;2022-12-10T16:35:53;0.30;99.90
21163;DHT22;10739;52.198;20.908;2022-12-10T16:38:23;0.40;99.90
21163;DHT22;10739;52.198;20.908;2022-12-10T16:40:50;0.40;99.90
21163;DHT22;10739;52.198;20.908;2022-12-10T16:43:24;0.30;99.90
21163;DHT22;10739;52.198;20.908;2022-12-10T16:45:54;0.30;99.90
21163;DHT22;10739;52.198;20.908;2022-12-10T16:48:21;0.30;99.90
21163;DHT22;10739;52.198;20.908;2022-12-10T16:50:50;0.30;99.90
21163;DHT22;10739;52.198;20.908;2022-12-10T16:53:27;0.30;99.90
21163;DHT22;10739;52.198;20.908;2022-12-10T16:55:57;0.30;99.90
21163;DHT22;10739;52.198;20.908;2022-12-10T16:58:24;0.40;99.90
21163;DHT22;10739;52.198;20.908;2022-12-10T17:00:53;0.40;99.90
21163;DHT22;10739;52.198;20.908;2022-12-10T17:03:22;0.30;99.90
21163;DHT22;10739;52.198;20.908;2022-12-10T17:05:58;0.30;99.90
21163;DHT22;10739;52.198;20.908;2022-12-10T17:08:27;0.30;99.90
21163;DHT22;10739;52.198;20.908;2022-12-10T17:10:55;0.20;99.90
21163;DHT22;10739;52.198;20.908;2022-12-10T17:13:41;0.20;99.90
21163;DHT22;10739;52.198;20.908;2022-12-10T17:16:15;0.20;99.90
21163;DHT22;10739;52.198;20.908;2022-12-10T17:18:45;0.20;99.90
21163;DHT22;10739;52.198;20.908;2022-12-10T17:21:11;0.20;99.90
21163;DHT22;10739;52.198;20.908;2022-12-10T17:23:37;0.10;99.90
21163;DHT22;10739;52.198;20.908;2022-12-10T17:26:04;0.10;99.90
21163;DHT22;10739;52.198;20.908;2022-12-10T17:28:31;0.10;99.90
21163;DHT22;10739;52.198;20.908;2022-12-10T17:30:58;0.20;99.90
21163;DHT22;10739;52.198;20.908;2022-12-10T17:33:25;0.20;99.90
21163;DHT22;10739;52.198;20.908;2022-12-10T17:35:52;0.20;99.90
21163;DHT22;10739;52.198;20.908;2022-12-10T17:38:22;0.20;99.90
21163;DHT22;10739;52.198;20.908;2022-12-10T17:40:50;0.30;99.90
21163;DHT22;10739;52.198;20.908;2022-12-10T17:43:17;0.30;99.90